Time;durP1;ratioP1;P1;durP2;ratioP2;P2;SDS_P1;SDS_P2;PMS_P1;PMS_P2;Temp;Humidity;BMP_temperature;BMP_pressure;BME280_temperature;BME280_humidity;BME280_pressure;Samples;Min_cycle;Max_cycle;Signal;HPM_P1;HPM_P2
2023/11/16 00:00:12;;;;;;;3.00;1.60;;;6.30;80.30;;;;;;5025105;28;20226;-75
2023/11/16 00:02:41;;;;;;;9.48;1.38;;;6.30;78.80;;;;;;5012852;28;20541;-75
2023/11/16 00:05:12;;;;;;;6.35;1.45;;;6.30;77.60;;;;;;5025244;28;20191;-75
2023/11/16 00:07:41;;;;;;;3.13;1.58;;;6.20;77.70;;;;;;5029648;28;20183;-74
2023/11/16 00:10:10;;;;;;;4.68;1.35;;;6.20;78.20;;;;;;5030016;28;20231;-75
2023/11/16 00:12:37;;;;;;;2.60;1.50;;;6.20;78.40;;;;;;5022326;28;20192;-75
2023/11/16 00:15:06;;;;;;;5.13;1.33;;;6.20;78.60;;;;;;5011880;28;20725;-75
2023/11/16 00:17:33;;;;;;;2.65;1.30;;;6.20;79.20;;;;;;5012011;28;20546;-75
2023/11/16 00:20:01;;;;;;;3.03;1.35;;;6.10;79.10;;;;;;5012441;28;20288;-75
2023/11/16 00:22:28;;;;;;;3.20;1.13;;;6.10;79.80;;;;;;5012073;28;20246;-75
2023/11/16 00:24:56;;;;;;;2.42;1.25;;;6.10;79.90;;;;;;5029405;28;20195;-75
2023/11/16 00:27:24;;;;;;;2.45;1.45;;;6.20;80.00;;;;;;5030044;28;20238;-75
2023/11/16 00:29:51;;;;;;;4.22;1.20;;;6.20;79.90;;;;;;5030082;28;20191;-75
2023/11/16 00:32:18;;;;;;;3.03;1.40;;;6.20;80.20;;;;;;5028988;28;20192;-75
2023/11/16 00:35:11;;;;;;;3.30;1.67;;;6.20;80.40;;;;;;5029876;28;20297;-75
2023/11/16 00:37:38;;;;;;;4.05;1.40;;;6.20;80.60;;;;;;5012654;28;20228;-75
2023/11/16 00:40:09;;;;;;;3.08;1.65;;;6.10;80.70;;;;;;5012830;28;20228;-75
2023/11/16 00:42:36;;;;;;;3.08;1.40;;;6.10;81.20;;;;;;5016567;28;20176;-75
2023/11/16 00:45:03;;;;;;;3.25;1.90;;;6.10;81.00;;;;;;5016655;28;20199;-75
2023/11/16 00:47:30;;;;;;;4.20;1.85;;;6.10;80.50;;;;;;5016441;28;20197;-75
2023/11/16 00:49:57;;;;;;;3.15;1.73;;;6.00;80.50;;;;;;5016168;28;20227;-75
2023/11/16 00:52:24;;;;;;;5.63;1.20;;;5.80;80.90;;;;;;5016510;28;20196;-75
2023/11/16 00:54:51;;;;;;;4.57;2.47;;;5.80;81.00;;;;;;5016191;28;20266;-75
2023/11/16 00:57:20;;;;;;;3.70;1.55;;;5.70;81.40;;;;;;5016225;28;20259;-75
2023/11/16 00:59:47;;;;;;;4.90;1.70;;;5.60;82.00;;;;;;5016524;28;20527;-75
2023/11/16 01:02:14;;;;;;;4.13;1.33;;;5.60;82.40;;;;;;5016385;28;20283;-75
2023/11/16 01:04:43;;;;;;;5.35;1.70;;;5.50;82.80;;;;;;5015958;28;20275;-75
2023/11/16 01:07:11;;;;;;;5.07;1.55;;;5.50;83.50;;;;;;5016249;28;20231;-75
2023/11/16 01:09:39;;;;;;;2.95;1.13;;;5.50;83.30;;;;;;5016295;28;20196;-75
2023/11/16 01:12:11;;;;;;;4.40;1.40;;;5.50;83.00;;;;;;5016127;28;20232;-75
2023/11/16 01:14:40;;;;;;;2.30;1.20;;;5.50;83.10;;;;;;5015828;28;20211;-75
2023/11/16 01:17:12;;;;;;;2.20;1.30;;;5.50;83.50;;;;;;5016085;28;20196;-75
2023/11/16 01:19:45;;;;;;;6.88;1.83;;;5.50;83.50;;;;;;5016101;28;20259;-75
2023/11/16 01:22:15;;;;;;;4.60;1.75;;;5.60;84.20;;;;;;5015785;28;20181;-75
2023/11/16 01:24:44;;;;;;;2.97;1.60;;;5.60;83.30;;;;;;5015879;28;20651;-75
2023/11/16 01:27:15;;;;;;;6.57;2.78;;;5.60;83.10;;;;;;5015894;28;20203;-75
2023/11/16 01:29:46;;;;;;;7.47;1.90;;;5.60;83.10;;;;;;5016141;28;20184;-75
2023/11/16 01:32:13;;;;;;;3.55;1.45;;;5.60;83.30;;;;;;5015856;28;20196;-75
2023/11/16 01:34:41;;;;;;;3.55;1.55;;;5.60;83.30;;;;;;5015730;28;20299;-75
2023/11/16 01:37:09;;;;;;;4.35;1.70;;;5.60;82.60;;;;;;5015329;28;20206;-75
2023/11/16 01:39:38;;;;;;;2.90;1.70;;;5.50;82.20;;;;;;5015406;28;20203;-75
2023/11/16 01:42:07;;;;;;;2.13;1.00;;;5.50;82.20;;;;;;5015605;28;20188;-75
2023/11/16 01:44:35;;;;;;;3.22;1.75;;;5.40;82.00;;;;;;5015267;28;20291;-75
2023/11/16 01:47:07;;;;;;;3.45;1.83;;;5.40;82.20;;;;;;5015241;28;20651;-75
2023/11/16 01:49:34;;;;;;;2.83;1.70;;;5.30;82.20;;;;;;5015158;28;20196;-75
2023/11/16 01:52:02;;;;;;;2.50;1.42;;;5.30;82.40;;;;;;5014897;28;20192;-75
2023/11/16 01:54:30;;;;;;;4.47;1.83;;;5.30;82.90;;;;;;5015029;28;20192;-75
2023/11/16 01:56:58;;;;;;;4.15;1.90;;;5.20;83.20;;;;;;5015181;28;20279;-75
2023/11/16 01:59:26;;;;;;;3.20;1.85;;;5.20;82.90;;;;;;5015092;28;20177;-75
2023/11/16 02:01:54;;;;;;;3.95;1.40;;;5.20;83.20;;;;;;5015271;28;20230;-75
2023/11/16 02:04:23;;;;;;;2.75;1.42;;;5.10;83.20;;;;;;5014825;28;20187;-75
2023/11/16 02:06:51;;;;;;;3.85;1.85;;;4.90;84.10;;;;;;5014796;28;20674;-75
2023/11/16 02:09:20;;;;;;;3.13;1.45;;;4.90;84.50;;;;;;5015123;28;20231;-75
2023/11/16 02:11:47;;;;;;;3.17;1.80;;;4.90;84.70;;;;;;5014678;28;20284;-75
2023/11/16 02:14:14;;;;;;;9.73;2.80;;;4.80;85.00;;;;;;5014960;28;20224;-75
2023/11/16 02:16:41;;;;;;;6.80;2.20;;;4.80;85.90;;;;;;5014539;28;20274;-75
2023/11/16 02:19:19;;;;;;;3.28;2.20;;;4.80;86.20;;;;;;5014933;28;20220;-75
2023/11/16 02:21:48;;;;;;;3.25;1.55;;;4.70;86.60;;;;;;5015154;28;20254;-75
2023/11/16 02:24:16;;;;;;;9.15;2.42;;;4.70;86.70;;;;;;5014518;28;20250;-75
2023/11/16 02:26:43;;;;;;;4.22;1.60;;;4.70;87.40;;;;;;5014474;28;20231;-75
2023/11/16 02:29:16;;;;;;;3.10;1.77;;;4.60;87.60;;;;;;5014696;28;20288;-75
2023/11/16 02:31:43;;;;;;;2.40;1.35;;;4.60;88.30;;;;;;5014925;28;20352;-75
2023/11/16 02:34:10;;;;;;;2.60;1.10;;;4.60;87.90;;;;;;5014709;28;20203;-75
2023/11/16 02:36:37;;;;;;;3.97;1.52;;;4.70;87.60;;;;;;5014517;28;20572;-75
2023/11/16 02:39:06;;;;;;;10.10;1.70;;;4.60;87.60;;;;;;5014654;28;20601;-75
2023/11/16 02:41:39;;;;;;;3.00;1.40;;;4.60;88.10;;;;;;5014474;28;20223;-75
2023/11/16 02:44:07;;;;;;;2.70;1.15;;;4.60;88.40;;;;;;5014441;28;20184;-75
2023/11/16 02:46:34;;;;;;;8.40;3.38;;;4.70;88.40;;;;;;5014081;28;20239;-75
2023/11/16 02:49:04;;;;;;;3.15;1.30;;;4.70;88.40;;;;;;5014017;28;20275;-75
2023/11/16 02:51:31;;;;;;;3.05;1.55;;;4.80;88.20;;;;;;5013919;28;20659;-75
2023/11/16 02:54:06;;;;;;;3.83;1.42;;;4.80;87.30;;;;;;5014496;28;20572;-75
2023/11/16 02:56:34;;;;;;;3.17;1.60;;;4.80;87.40;;;;;;5014317;28;20290;-75
2023/11/16 02:59:01;;;;;;;3.97;1.58;;;4.90;87.40;;;;;;5014230;28;20228;-75
2023/11/16 03:01:28;;;;;;;4.35;1.20;;;4.80;87.00;;;;;;5013791;28;20192;-75
2023/11/16 03:03:55;;;;;;;2.42;1.17;;;4.80;86.60;;;;;;5012828;28;20199;-75
2023/11/16 03:06:22;;;;;;;2.50;1.48;;;4.80;86.20;;;;;;5014087;28;20281;-75
2023/11/16 03:08:49;;;;;;;4.28;1.30;;;4.80;85.00;;;;;;5014041;28;20235;-75
2023/11/16 03:11:16;;;;;;;2.90;1.42;;;4.70;84.80;;;;;;5013969;28;20295;-75
2023/11/16 03:13:46;;;;;;;2.45;1.10;;;4.70;84.30;;;;;;5013842;28;20196;-75
2023/11/16 03:16:14;;;;;;;2.25;0.90;;;4.70;84.10;;;;;;5013516;28;20307;-75
2023/11/16 03:18:41;;;;;;;2.80;1.20;;;4.70;84.20;;;;;;5013592;28;20188;-75
2023/11/16 03:21:08;;;;;;;3.00;1.00;;;4.70;84.10;;;;;;5013772;28;20612;-75
2023/11/16 03:23:36;;;;;;;2.88;1.27;;;4.60;84.10;;;;;;5013787;28;20283;-75
2023/11/16 03:26:03;;;;;;;3.15;1.10;;;4.60;84.30;;;;;;5013789;28;20232;-76
2023/11/16 03:28:30;;;;;;;3.47;1.40;;;4.60;84.20;;;;;;5013721;28;20196;-75
2023/11/16 03:30:59;;;;;;;3.00;1.25;;;4.60;83.90;;;;;;5013788;28;20275;-75
2023/11/16 03:33:26;;;;;;;3.10;1.15;;;4.50;83.50;;;;;;5013703;28;20199;-75
2023/11/16 03:35:53;;;;;;;2.30;1.00;;;4.50;83.70;;;;;;5013169;28;20749;-75
2023/11/16 03:38:20;;;;;;;4.90;1.92;;;4.50;83.50;;;;;;5013380;28;20207;-75
2023/11/16 03:40:49;;;;;;;3.70;1.60;;;4.50;83.40;;;;;;5013727;28;20610;-75
2023/11/16 03:43:16;;;;;;;6.63;1.55;;;4.40;83.50;;;;;;5013664;28;20196;-75
2023/11/16 03:45:43;;;;;;;2.58;1.13;;;4.40;84.10;;;;;;5013596;28;20350;-75
2023/11/16 03:48:11;;;;;;;4.03;1.30;;;4.40;84.20;;;;;;5013591;28;20616;-75
2023/11/16 03:50:39;;;;;;;3.28;1.75;;;4.50;83.70;;;;;;5013563;28;20195;-75
2023/11/16 03:53:07;;;;;;;4.38;2.92;;;4.40;83.30;;;;;;5013616;28;20591;-75
2023/11/16 03:55:34;;;;;;;8.90;2.67;;;4.40;83.30;;;;;;5013123;28;20208;-75
2023/11/16 03:58:01;;;;;;;3.83;1.55;;;4.40;82.80;;;;;;5013218;28;20223;-75
2023/11/16 04:00:30;;;;;;;4.78;2.30;;;4.40;82.90;;;;;;5013439;28;20294;-75
2023/11/16 04:02:59;;;;;;;2.60;1.60;;;4.40;82.80;;;;;;5013381;28;20192;-75
2023/11/16 04:05:28;;;;;;;3.50;2.10;;;4.40;83.20;;;;;;5013311;28;20399;-75
2023/11/16 04:07:56;;;;;;;4.05;1.58;;;4.40;83.60;;;;;;5013409;28;20200;-75
2023/11/16 04:10:23;;;;;;;2.90;1.58;;;4.40;84.70;;;;;;5013393;28;20279;-75
2023/11/16 04:12:50;;;;;;;3.17;1.25;;;4.40;84.50;;;;;;5013454;28;20247;-75
2023/11/16 04:15:17;;;;;;;3.85;1.38;;;4.40;84.30;;;;;;5014487;28;20200;-75
2023/11/16 04:17:45;;;;;;;2.70;1.20;;;4.30;84.20;;;;;;5017244;28;20234;-75
2023/11/16 04:20:12;;;;;;;4.57;1.10;;;4.40;84.20;;;;;;5017104;28;20196;-75
2023/11/16 04:22:43;;;;;;;4.13;1.30;;;4.40;84.00;;;;;;5016783;28;20204;-75
2023/11/16 04:25:18;;;;;;;2.33;1.10;;;4.30;84.70;;;;;;5016787;28;20224;-75
2023/11/16 04:27:47;;;;;;;4.35;1.77;;;4.30;84.80;;;;;;5017048;28;20184;-75
2023/11/16 04:30:16;;;;;;;5.25;2.53;;;4.20;85.30;;;;;;5016999;28;20192;-75
2023/11/16 04:32:45;;;;;;;4.38;1.30;;;4.20;85.90;;;;;;5016977;28;20311;-75
2023/11/16 04:35:13;;;;;;;3.50;1.33;;;4.20;86.40;;;;;;5016777;28;20230;-75
2023/11/16 04:37:41;;;;;;;3.00;1.17;;;4.20;86.40;;;;;;5016509;28;20192;-75
2023/11/16 04:40:09;;;;;;;3.40;1.38;;;4.30;86.50;;;;;;5016931;28;20224;-75
2023/11/16 04:42:36;;;;;;;3.40;0.95;;;4.30;86.50;;;;;;5016739;28;20230;-75
2023/11/16 04:45:04;;;;;;;2.10;1.00;;;4.20;87.40;;;;;;5016706;28;20283;-75
2023/11/16 04:47:32;;;;;;;8.38;1.80;;;4.20;86.80;;;;;;5016743;28;20303;-75
2023/11/16 04:50:00;;;;;;;3.05;1.35;;;4.30;86.90;;;;;;5016251;28;20659;-75
2023/11/16 04:52:28;;;;;;;2.78;1.30;;;4.30;86.60;;;;;;5016291;28;20196;-75
2023/11/16 04:54:57;;;;;;;5.60;1.30;;;4.40;86.20;;;;;;5016194;28;20202;-75
2023/11/16 04:57:23;;;;;;;2.35;0.93;;;4.40;85.60;;;;;;5016245;28;20358;-75
2023/11/16 04:59:50;;;;;;;3.28;1.00;;;4.50;85.70;;;;;;5016559;28;20271;-75
2023/11/16 05:02:17;;;;;;;3.42;0.95;;;4.50;86.00;;;;;;5016467;28;20621;-75
2023/11/16 05:04:45;;;;;;;2.83;1.00;;;4.50;85.60;;;;;;5016203;28;20274;-75
2023/11/16 05:07:13;;;;;;;2.85;1.30;;;4.50;85.70;;;;;;5016333;28;20681;-75
2023/11/16 05:09:41;;;;;;;3.05;1.00;;;4.50;86.40;;;;;;5016244;28;20192;-75
2023/11/16 05:12:10;;;;;;;2.35;0.82;;;4.50;86.70;;;;;;5016321;28;20224;-75
2023/11/16 05:14:37;;;;;;;3.90;1.40;;;4.50;86.60;;;;;;5016286;28;20235;-75
2023/11/16 05:17:05;;;;;;;2.40;1.00;;;4.60;86.40;;;;;;5016052;28;20647;-75
2023/11/16 05:19:31;;;;;;;3.45;1.08;;;4.50;86.50;;;;;;5016159;28;20196;-75
2023/11/16 05:21:58;;;;;;;2.03;0.77;;;4.50;86.40;;;;;;5016036;28;20235;-75
2023/11/16 05:24:25;;;;;;;2.13;0.90;;;4.50;86.50;;;;;;5015737;28;20228;-75
2023/11/16 05:27:01;;;;;;;1.90;0.85;;;4.50;86.40;;;;;;5015079;28;20239;-75
2023/11/16 05:29:30;;;;;;;2.33;0.93;;;4.50;85.90;;;;;;5015693;28;20668;-75
2023/11/16 05:31:57;;;;;;;2.78;1.13;;;4.40;86.20;;;;;;5015804;28;20278;-75
2023/11/16 05:34:27;;;;;;;2.63;0.80;;;4.50;86.20;;;;;;5015447;28;20741;-75
2023/11/16 05:36:57;;;;;;;2.53;1.00;;;4.50;85.50;;;;;;5004937;28;20220;-76
2023/11/16 05:39:25;;;;;;;3.70;1.05;;;4.50;84.80;;;;;;5014685;28;20188;-76
2023/11/16 05:41:52;;;;;;;3.28;1.50;;;4.40;85.20;;;;;;5014939;28;20229;-76
2023/11/16 05:44:20;;;;;;;2.20;1.08;;;4.40;85.80;;;;;;5015363;28;20274;-76
2023/11/16 05:46:48;;;;;;;2.10;1.35;;;4.30;86.10;;;;;;5025840;28;20727;-76
2023/11/16 05:49:15;;;;;;;3.40;2.42;;;4.30;86.50;;;;;;5034899;28;20230;-75
2023/11/16 05:51:45;;;;;;;5.78;3.42;;;4.40;86.80;;;;;;5035031;28;20278;-75
2023/11/16 05:54:14;;;;;;;3.83;1.23;;;4.40;86.80;;;;;;5034535;28;20195;-76
2023/11/16 05:56:48;;;;;;;3.65;1.50;;;4.30;86.20;;;;;;5034593;28;20266;-75
2023/11/16 05:59:15;;;;;;;2.50;1.20;;;4.30;85.10;;;;;;5035056;28;20176;-75
2023/11/16 06:01:48;;;;;;;2.95;1.58;;;4.20;84.70;;;;;;5034447;28;20599;-76
2023/11/16 06:04:16;;;;;;;3.80;2.05;;;4.20;84.50;;;;;;5034410;28;20184;-76
2023/11/16 06:06:43;;;;;;;4.47;1.65;;;4.10;83.90;;;;;;5034363;28;20196;-75
2023/11/16 06:09:10;;;;;;;4.25;1.63;;;4.10;83.80;;;;;;5034437;28;20223;-76
2023/11/16 06:11:37;;;;;;;2.22;0.93;;;4.00;83.80;;;;;;5034384;28;20238;-76
2023/11/16 06:14:08;;;;;;;2.58;1.42;;;4.00;84.30;;;;;;5026697;28;20717;-76
2023/11/16 06:16:35;;;;;;;3.53;1.92;;;4.10;85.10;;;;;;5014091;28;20561;-75
2023/11/16 06:19:03;;;;;;;3.92;2.25;;;4.10;85.50;;;;;;5014368;28;20246;-76
2023/11/16 06:21:32;;;;;;;4.20;1.90;;;4.10;85.60;;;;;;5014338;28;20196;-76
2023/11/16 06:23:59;;;;;;;4.90;2.75;;;4.20;85.70;;;;;;5014210;28;20242;-75
2023/11/16 06:26:27;;;;;;;3.75;1.95;;;4.10;85.20;;;;;;5014459;28;20239;-76
2023/11/16 06:28:54;;;;;;;5.28;2.25;;;4.10;84.60;;;;;;5012790;28;20200;-76
2023/11/16 06:31:22;;;;;;;4.95;2.50;;;4.10;84.30;;;;;;5030605;28;20187;-75
2023/11/16 06:33:49;;;;;;;3.45;1.83;;;4.10;84.10;;;;;;5013784;28;20197;-76
2023/11/16 06:36:22;;;;;;;3.55;2.08;;;4.10;84.80;;;;;;5013329;28;20284;-75
2023/11/16 06:38:51;;;;;;;3.70;2.38;;;4.10;85.30;;;;;;5013512;28;20279;-76
2023/11/16 06:41:18;;;;;;;3.80;2.50;;;4.10;84.80;;;;;;5013465;28;20200;-75
2023/11/16 06:43:45;;;;;;;5.75;3.20;;;4.10;85.10;;;;;;5013684;28;20196;-75
2023/11/16 06:46:13;;;;;;;7.50;3.58;;;4.30;85.60;;;;;;5013438;28;20200;-75
2023/11/16 06:48:40;;;;;;;3.80;2.35;;;4.60;85.50;;;;;;5013750;28;20196;-76
2023/11/16 06:51:08;;;;;;;3.90;2.30;;;4.90;84.60;;;;;;5013527;28;20279;-75
2023/11/16 06:53:35;;;;;;;4.40;2.75;;;5.10;83.40;;;;;;5013539;28;20603;-76
2023/11/16 06:56:04;;;;;;;5.05;3.47;;;5.00;82.40;;;;;;5013184;28;20242;-76
2023/11/16 06:58:35;;;;;;;7.30;4.20;;;5.00;82.40;;;;;;5012895;28;20254;-76
2023/11/16 07:01:04;;;;;;;8.60;4.82;;;5.10;81.60;;;;;;5017385;28;20600;-76
2023/11/16 07:03:31;;;;;;;18.20;9.98;;;5.20;81.90;;;;;;5013341;28;20204;-76
2023/11/16 07:05:58;;;;;;;14.68;10.15;;;5.40;82.20;;;;;;5012900;28;20204;-76
2023/11/16 07:08:25;;;;;;;7.32;4.40;;;5.70;81.60;;;;;;5013106;28;20192;-76
2023/11/16 07:10:52;;;;;;;12.88;5.93;;;6.10;79.70;;;;;;5012975;28;20709;-76
2023/11/16 07:13:23;;;;;;;12.68;8.52;;;6.40;78.40;;;;;;5013274;28;20607;-76
2023/11/16 07:15:50;;;;;;;27.35;17.42;;;6.80;76.20;;;;;;5012974;28;20661;-76
2023/11/16 07:18:19;;;;;;;9.30;6.03;;;7.10;75.90;;;;;;5012702;28;20345;-76
2023/11/16 07:20:47;;;;;;;5.32;3.38;;;7.30;73.30;;;;;;5012888;28;20674;-76
2023/11/16 07:23:14;;;;;;;16.10;9.82;;;7.50;72.00;;;;;;5012928;28;20192;-76
2023/11/16 07:25:43;;;;;;;26.98;16.35;;;7.60;71.90;;;;;;5012761;28;20192;-76
2023/11/16 07:28:10;;;;;;;9.57;6.95;;;7.80;70.30;;;;;;5014327;28;20526;-76
2023/11/16 07:30:39;;;;;;;6.03;3.28;;;7.90;70.40;;;;;;5021816;28;20195;-76
2023/11/16 07:33:06;;;;;;;4.68;3.10;;;8.10;69.20;;;;;;5019673;28;20279;-76
2023/11/16 07:35:33;;;;;;;5.95;3.25;;;8.20;69.00;;;;;;5021825;28;20226;-76
2023/11/16 07:38:00;;;;;;;6.20;3.90;;;8.20;68.20;;;;;;5019371;28;20227;-76
2023/11/16 07:40:27;;;;;;;4.00;2.78;;;8.30;68.10;;;;;;5020694;28;20237;-76
2023/11/16 07:42:55;;;;;;;16.00;10.02;;;8.30;67.10;;;;;;5022393;28;20294;-76
2023/11/16 07:45:22;;;;;;;13.52;6.80;;;8.40;67.60;;;;;;5021175;28;20554;-76
2023/11/16 07:47:51;;;;;;;6.80;3.70;;;8.60;67.80;;;;;;5019821;28;20218;-76
2023/11/16 07:50:18;;;;;;;9.48;2.50;;;8.90;66.80;;;;;;5023050;28;20222;-76
2023/11/16 07:52:47;;;;;;;3.55;1.70;;;9.20;64.70;;;;;;5029084;28;20279;-76
2023/11/16 07:55:16;;;;;;;3.40;1.92;;;9.60;63.70;;;;;;5026322;28;20290;-76
2023/11/16 07:57:47;;;;;;;3.83;2.58;;;9.90;62.90;;;;;;5026814;28;20618;-76
2023/11/16 08:00:22;;;;;;;3.05;1.05;;;10.20;59.40;;;;;;5028551;28;20285;-76
2023/11/16 08:05:37;;;;;;;28.00;16.40;;;10.10;58.80;;;;;;5029240;28;20276;-76
2023/11/16 08:08:07;;;;;;;23.42;13.20;;;10.10;58.60;;;;;;5026883;28;20200;-76
2023/11/16 08:10:34;;;;;;;18.08;12.07;;;10.10;58.80;;;;;;5027730;28;20226;-76
2023/11/16 08:13:01;;;;;;;16.95;10.23;;;10.10;58.80;;;;;;5026058;28;20195;-76
2023/11/16 08:15:29;;;;;;;8.63;5.50;;;10.30;58.50;;;;;;5025348;28;20290;-76
2023/11/16 08:17:57;;;;;;;5.85;2.65;;;10.50;58.70;;;;;;5028435;28;20232;-76
2023/11/16 08:20:28;;;;;;;5.25;2.92;;;10.70;57.70;;;;;;5025902;28;20287;-76
2023/11/16 08:22:56;;;;;;;4.97;2.92;;;10.70;57.70;;;;;;5025755;28;20196;-76
2023/11/16 08:25:28;;;;;;;6.45;3.75;;;10.90;58.00;;;;;;5025717;28;20319;-76
2023/11/16 08:27:55;;;;;;;4.10;2.40;;;11.20;56.70;;;;;;5025454;28;20651;-76
2023/11/16 08:30:23;;;;;;;3.88;1.90;;;11.30;56.50;;;;;;5025381;28;20235;-76
2023/11/16 08:32:51;;;;;;;3.50;1.63;;;11.50;55.90;;;;;;5028670;28;20525;-76
2023/11/16 08:35:20;;;;;;;3.80;1.30;;;11.70;54.80;;;;;;5028462;28;20245;-76
2023/11/16 08:37:47;;;;;;;10.77;8.60;;;11.90;54.40;;;;;;5025863;28;20477;-76
2023/11/16 08:40:18;;;;;;;6.03;3.90;;;12.20;54.10;;;;;;5027769;28;20474;-76
2023/11/16 08:42:51;;;;;;;3.57;2.10;;;12.30;53.80;;;;;;5026524;28;20474;-76
2023/11/16 08:45:20;;;;;;;4.10;2.43;;;12.60;52.00;;;;;;5026060;28;20470;-76
2023/11/16 08:47:48;;;;;;;3.50;1.90;;;12.80;52.30;;;;;;5027518;28;20524;-76
2023/11/16 08:50:17;;;;;;;4.43;2.40;;;13.00;52.10;;;;;;5025006;28;20630;-76
2023/11/16 08:52:48;;;;;;;3.70;2.60;;;13.20;49.90;;;;;;5026203;28;20446;-77
2023/11/16 08:55:16;;;;;;;3.53;1.63;;;13.30;49.70;;;;;;5025829;28;20443;-76
2023/11/16 08:57:46;;;;;;;4.50;2.27;;;13.50;48.40;;;;;;5026386;28;20501;-77
2023/11/16 09:02:57;;;;;;;4.07;2.53;;;13.90;48.30;;;;;;5023055;28;20757;-77
2023/11/16 09:05:24;;;;;;;3.00;1.63;;;14.10;48.10;;;;;;5024739;28;20446;-76
2023/11/16 09:07:53;;;;;;;4.00;2.10;;;14.20;48.10;;;;;;5024043;28;20529;-77
2023/11/16 09:10:21;;;;;;;13.70;9.70;;;14.50;48.30;;;;;;5023147;28;20932;-77
2023/11/16 09:12:49;;;;;;;23.73;13.33;;;14.60;45.80;;;;;;5023740;28;20457;-77
2023/11/16 09:15:16;;;;;;;23.63;14.97;;;14.80;45.00;;;;;;5024077;28;20438;-76
2023/11/16 09:17:45;;;;;;;15.90;10.73;;;14.60;45.30;;;;;;5022585;28;20491;-76
2023/11/16 09:20:13;;;;;;;8.30;4.93;;;14.60;44.50;;;;;;5024227;28;20872;-76
2023/11/16 09:22:42;;;;;;;16.47;11.23;;;14.50;45.20;;;;;;5022778;28;20441;-76
2023/11/16 09:25:15;;;;;;;9.60;5.43;;;14.30;44.70;;;;;;5023595;28;20532;-77
2023/11/16 09:27:42;;;;;;;5.80;3.60;;;14.10;45.60;;;;;;5021868;28;20872;-77
2023/11/16 09:30:14;;;;;;;2.77;1.90;;;13.90;46.60;;;;;;5024106;28;20956;-76
2023/11/16 09:32:42;;;;;;;8.17;3.70;;;14.10;47.50;;;;;;5020456;28;20439;-76
2023/11/16 09:35:14;;;;;;;12.43;7.60;;;14.40;47.10;;;;;;5023506;28;20451;-76
2023/11/16 09:37:44;;;;;;;4.50;2.80;;;14.70;46.00;;;;;;5021294;28;20553;-77
2023/11/16 09:40:14;;;;;;;6.00;3.17;;;14.90;45.50;;;;;;5023329;28;20897;-76
2023/11/16 09:42:44;;;;;;;10.70;5.33;;;14.90;44.60;;;;;;5021547;28;20936;-76
2023/11/16 09:45:11;;;;;;;7.03;4.53;;;14.90;44.40;;;;;;5023981;28;20877;-76
2023/11/16 09:47:44;;;;;;;3.77;2.00;;;14.70;44.50;;;;;;5024155;28;20621;-76
2023/11/16 09:50:14;;;;;;;2.93;1.27;;;14.40;44.80;;;;;;5021506;28;20483;-76
2023/11/16 09:52:41;;;;;;;2.77;0.80;;;14.10;45.30;;;;;;5023903;28;20431;-76
2023/11/16 09:55:10;;;;;;;5.13;2.33;;;13.90;45.00;;;;;;5021500;28;20441;-77
2023/11/16 09:57:41;;;;;;;3.43;1.70;;;13.70;45.70;;;;;;5020914;28;20992;-76
2023/11/16 10:00:20;;;;;;;2.70;1.50;;;13.60;46.00;;;;;;5021753;28;20782;-76
2023/11/16 10:02:53;;;;;;;2.20;1.23;;;13.50;45.70;;;;;;5021841;28;20435;-76
2023/11/16 10:05:22;;;;;;;2.70;1.00;;;13.50;46.10;;;;;;5021923;28;20449;-76
2023/11/16 10:07:52;;;;;;;2.50;1.07;;;13.50;46.50;;;;;;5021990;28;20443;-76
2023/11/16 10:10:20;;;;;;;2.83;1.10;;;13.60;46.10;;;;;;5023140;28;20438;-77
2023/11/16 10:12:50;;;;;;;2.43;1.00;;;13.50;46.30;;;;;;5021214;28;20451;-76
2023/11/16 10:15:19;;;;;;;2.40;1.00;;;13.50;45.60;;;;;;5022217;28;20592;-76
2023/11/16 10:17:46;;;;;;;2.20;0.83;;;13.40;45.50;;;;;;5021122;28;20482;-76
2023/11/16 10:20:16;;;;;;;3.17;1.40;;;13.20;46.30;;;;;;5023341;28;20477;-77
2023/11/16 10:22:44;;;;;;;2.30;0.90;;;13.10;45.50;;;;;;5021158;28;20489;-76
2023/11/16 10:25:11;;;;;;;2.20;0.97;;;13.00;46.00;;;;;;5022798;28;20450;-76
2023/11/16 10:27:39;;;;;;;2.07;0.80;;;12.90;46.60;;;;;;5021238;28;20439;-75
2023/11/16 10:30:11;;;;;;;2.10;0.90;;;12.90;46.50;;;;;;5023319;28;20533;-77
2023/11/16 10:32:42;;;;;;;2.47;1.00;;;12.90;46.10;;;;;;5020535;28;20797;-76
2023/11/16 10:35:13;;;;;;;2.33;0.87;;;12.90;46.20;;;;;;5020496;28;20553;-77
2023/11/16 10:37:42;;;;;;;2.83;1.10;;;13.00;45.80;;;;;;5020696;28;20471;-76
2023/11/16 10:40:11;;;;;;;5.57;1.17;;;13.00;45.90;;;;;;5022664;28;20801;-76
2023/11/16 10:42:41;;;;;;;2.00;0.80;;;13.10;45.40;;;;;;5020926;28;20444;-77
2023/11/16 10:45:14;;;;;;;4.10;0.90;;;13.20;46.10;;;;;;5022830;28;20549;-76
2023/11/16 10:47:43;;;;;;;3.20;1.40;;;13.20;44.50;;;;;;5020199;28;20439;-76
2023/11/16 10:50:17;;;;;;;2.23;1.13;;;13.20;43.90;;;;;;5023022;28;20438;-77
2023/11/16 10:52:45;;;;;;;3.03;1.90;;;13.10;44.90;;;;;;5019961;28;20436;-76
2023/11/16 10:55:21;;;;;;;4.50;1.23;;;13.10;45.10;;;;;;5019807;28;20443;-76
2023/11/16 10:57:57;;;;;;;2.93;1.00;;;13.00;45.40;;;;;;5020231;28;20501;-76
2023/11/16 11:00:29;;;;;;;2.53;1.00;;;12.90;45.30;;;;;;5022917;28;20446;-76
2023/11/16 11:02:59;;;;;;;2.80;1.70;;;12.80;45.70;;;;;;5020381;28;20531;-76
2023/11/16 11:05:31;;;;;;;2.90;1.50;;;12.60;46.00;;;;;;5021419;28;20912;-76
2023/11/16 11:08:00;;;;;;;3.63;2.10;;;12.50;46.10;;;;;;5019916;28;20443;-76
2023/11/16 11:10:33;;;;;;;3.30;2.20;;;12.40;45.90;;;;;;5020042;28;20442;-76
2023/11/16 11:13:06;;;;;;;3.20;1.77;;;12.30;46.30;;;;;;5022168;28;20439;-76
2023/11/16 11:15:37;;;;;;;3.10;1.50;;;12.20;46.70;;;;;;5020586;28;20442;-76
2023/11/16 11:18:06;;;;;;;2.83;1.27;;;12.10;47.10;;;;;;5021811;28;20510;-76
2023/11/16 11:20:36;;;;;;;3.63;1.40;;;12.00;47.60;;;;;;5019816;28;20478;-76
2023/11/16 11:23:13;;;;;;;5.70;1.40;;;12.00;48.10;;;;;;5021931;28;20453;-76
2023/11/16 11:25:42;;;;;;;2.60;0.97;;;12.00;47.50;;;;;;5020653;28;20477;-76
2023/11/16 11:28:14;;;;;;;2.30;1.10;;;11.90;47.60;;;;;;5020360;28;20490;-76
2023/11/16 11:30:52;;;;;;;2.40;1.07;;;11.80;47.60;;;;;;5021353;28;20442;-76
2023/11/16 11:33:28;;;;;;;3.07;1.53;;;11.70;47.70;;;;;;5020012;28;20441;-76
2023/11/16 11:35:56;;;;;;;2.57;1.30;;;11.70;48.20;;;;;;5018976;28;20474;-76
2023/11/16 11:38:27;;;;;;;4.37;1.10;;;11.70;47.80;;;;;;5019300;28;20573;-76
2023/11/16 11:40:58;;;;;;;2.80;1.63;;;11.60;47.70;;;;;;5022482;28;20839;-76
2023/11/16 11:43:26;;;;;;;5.40;1.90;;;11.60;48.60;;;;;;5020500;28;20837;-76
2023/11/16 11:45:56;;;;;;;3.87;1.50;;;11.60;49.20;;;;;;5022576;28;20446;-76
2023/11/16 11:48:24;;;;;;;3.10;1.00;;;11.60;50.00;;;;;;5021739;28;20937;-76
2023/11/16 11:50:59;;;;;;;2.30;1.13;;;11.60;49.50;;;;;;5020355;28;20208;-76
2023/11/16 11:53:29;;;;;;;3.20;1.20;;;11.70;49.40;;;;;;5022157;28;20434;-76
2023/11/16 11:55:57;;;;;;;2.77;1.60;;;11.60;49.90;;;;;;5023242;28;20458;-76
2023/11/16 11:58:25;;;;;;;3.73;1.60;;;11.60;51.40;;;;;;5021596;28;20492;-76
2023/11/16 12:00:53;;;;;;;4.70;1.50;;;11.50;50.90;;;;;;5020095;28;20438;-76
2023/11/16 12:03:22;;;;;;;3.60;1.60;;;11.50;50.90;;;;;;5020925;28;20443;-76
2023/11/16 12:05:58;;;;;;;2.20;1.00;;;11.50;51.50;;;;;;5018598;28;20553;-76
2023/11/16 12:08:26;;;;;;;2.90;1.20;;;11.50;52.10;;;;;;5017280;28;20449;-75
2023/11/16 12:10:55;;;;;;;3.50;1.13;;;11.60;52.00;;;;;;5020242;28;20443;-74
2023/11/16 12:13:22;;;;;;;3.47;1.20;;;11.60;52.10;;;;;;5022373;28;20819;-74
2023/11/16 12:15:49;;;;;;;3.40;1.00;;;11.70;52.50;;;;;;5021609;28;21014;-75
2023/11/16 12:18:16;;;;;;;1.90;0.80;;;11.80;52.40;;;;;;5019985;28;20862;-75
2023/11/16 12:20:45;;;;;;;3.53;1.10;;;11.90;52.50;;;;;;5021478;28;20496;-74
2023/11/16 12:23:14;;;;;;;2.20;1.20;;;11.90;52.40;;;;;;5019427;28;21762;-75
2023/11/16 12:25:42;;;;;;;2.63;1.27;;;11.90;52.00;;;;;;5021023;28;20549;-75
2023/11/16 12:28:09;;;;;;;2.23;0.90;;;11.90;51.30;;;;;;5018722;28;20435;-75
2023/11/16 12:30:40;;;;;;;3.37;1.10;;;11.90;51.70;;;;;;5021680;28;20525;-75
2023/11/16 12:33:08;;;;;;;4.13;1.23;;;11.90;51.40;;;;;;5020393;28;20800;-75
2023/11/16 12:35:39;;;;;;;4.13;1.33;;;11.80;51.30;;;;;;5019689;28;20441;-75
2023/11/16 12:38:08;;;;;;;2.77;1.07;;;11.80;51.30;;;;;;5023932;28;20513;-75
2023/11/16 12:40:37;;;;;;;3.67;1.63;;;11.80;51.70;;;;;;5024347;28;20521;-75
2023/11/16 12:43:04;;;;;;;3.43;1.00;;;11.80;52.10;;;;;;5027261;28;20521;-75
2023/11/16 12:45:32;;;;;;;2.40;0.87;;;11.90;52.50;;;;;;5026841;28;20874;-75
2023/11/16 12:48:01;;;;;;;2.10;1.10;;;12.10;52.30;;;;;;5027178;28;20454;-75
2023/11/16 12:50:28;;;;;;;2.90;1.27;;;12.20;51.80;;;;;;5024572;28;20925;-76
2023/11/16 12:52:55;;;;;;;2.70;1.10;;;12.30;51.90;;;;;;5024212;28;20437;-75
2023/11/16 12:55:23;;;;;;;6.23;1.33;;;12.40;52.20;;;;;;5024882;28;20493;-75
2023/11/16 12:57:50;;;;;;;3.40;1.10;;;12.60;51.80;;;;;;5026621;28;20525;-76
2023/11/16 13:00:19;;;;;;;3.13;0.97;;;12.80;51.20;;;;;;5026461;28;20566;-75
2023/11/16 13:02:46;;;;;;;2.30;0.93;;;13.00;50.70;;;;;;5023715;28;20485;-76
2023/11/16 13:05:17;;;;;;;2.30;0.90;;;13.10;50.50;;;;;;5023386;28;20784;-76